sensor_id;sensor_type;location;lat;lon;timestamp;pressure;altitude;pressure_sealevel;temperature;humidity
41690;BME280;27372;42.658;23.256;2023-03-14T00:00:13;93972.69;;;3.76;53.11
41690;BME280;27372;42.658;23.256;2023-03-14T00:02:39;93973.59;;;3.61;52.97
41690;BME280;27372;42.658;23.256;2023-03-14T00:05:06;93969.69;;;3.50;53.45
41690;BME280;27372;42.658;23.256;2023-03-14T00:07:36;93977.09;;;2.88;55.58
41690;BME280;27372;42.658;23.256;2023-03-14T00:10:07;93971.13;;;2.36;56.88
41690;BME280;27372;42.658;23.256;2023-03-14T00:12:33;93969.88;;;2.47;57.44
41690;BME280;27372;42.658;23.256;2023-03-14T00:14:58;93952.13;;;2.29;58.03
41690;BME280;27372;42.658;23.256;2023-03-14T00:17:26;93960.34;;;2.17;58.67
41690;BME280;27372;42.658;23.256;2023-03-14T00:19:52;93952.19;;;2.06;59.27
41690;BME280;27372;42.658;23.256;2023-03-14T00:22:19;93952.72;;;2.16;59.16
41690;BME280;27372;42.658;23.256;2023-03-14T00:24:44;93942.66;;;1.91;60.12
41690;BME280;27372;42.658;23.256;2023-03-14T00:27:10;93932.72;;;1.80;61.11
41690;BME280;27372;42.658;23.256;2023-03-14T00:29:35;93923.25;;;1.87;60.61
41690;BME280;27372;42.658;23.256;2023-03-14T00:32:01;93927.53;;;2.10;60.06
41690;BME280;27372;42.658;23.256;2023-03-14T00:34:30;93931.09;;;2.39;58.81
41690;BME280;27372;42.658;23.256;2023-03-14T00:36:56;93928.19;;;2.63;57.93
41690;BME280;27372;42.658;23.256;2023-03-14T00:39:21;93919.22;;;2.66;58.09
41690;BME280;27372;42.658;23.256;2023-03-14T00:41:47;93933.41;;;2.70;57.33
41690;BME280;27372;42.658;23.256;2023-03-14T00:44:12;93925.34;;;2.43;57.57
41690;BME280;27372;42.658;23.256;2023-03-14T00:46:38;93916.81;;;2.13;59.43
41690;BME280;27372;42.658;23.256;2023-03-14T00:49:03;93914.16;;;1.61;61.07
41690;BME280;27372;42.658;23.256;2023-03-14T00:51:29;93919.97;;;1.25;62.40
41690;BME280;27372;42.658;23.256;2023-03-14T00:53:55;93910.63;;;1.39;62.44
41690;BME280;27372;42.658;23.256;2023-03-14T00:56:21;93917.28;;;1.57;61.62
41690;BME280;27372;42.658;23.256;2023-03-14T00:58:46;93907.91;;;1.85;61.08
41690;BME280;27372;42.658;23.256;2023-03-14T01:01:14;93905.03;;;1.95;60.44
41690;BME280;27372;42.658;23.256;2023-03-14T01:03:40;93896.28;;;1.96;59.92
41690;BME280;27372;42.658;23.256;2023-03-14T01:06:14;93902.16;;;2.20;59.34
41690;BME280;27372;42.658;23.256;2023-03-14T01:08:40;93906.47;;;1.83;59.45
41690;BME280;27372;42.658;23.256;2023-03-14T01:11:12;93898.88;;;1.96;59.44
41690;BME280;27372;42.658;23.256;2023-03-14T01:13:38;93902.34;;;2.19;58.55
41690;BME280;27372;42.658;23.256;2023-03-14T01:16:05;93900.31;;;2.36;58.07
41690;BME280;27372;42.658;23.256;2023-03-14T01:18:32;93905.25;;;2.45;57.29
41690;BME280;27372;42.658;23.256;2023-03-14T01:20:57;93890.94;;;2.35;57.65
41690;BME280;27372;42.658;23.256;2023-03-14T01:23:23;93882.81;;;2.38;57.42
41690;BME280;27372;42.658;23.256;2023-03-14T01:25:48;93881.19;;;2.37;57.03
41690;BME280;27372;42.658;23.256;2023-03-14T01:28:15;93881.84;;;2.60;57.16
41690;BME280;27372;42.658;23.256;2023-03-14T01:30:41;93872.78;;;2.35;57.77
41690;BME280;27372;42.658;23.256;2023-03-14T01:33:06;93885.00;;;2.56;56.88
41690;BME280;27372;42.658;23.256;2023-03-14T01:35:32;93865.03;;;2.35;56.17
41690;BME280;27372;42.658;23.256;2023-03-14T01:37:57;93875.38;;;2.13;57.17
41690;BME280;27372;42.658;23.256;2023-03-14T01:40:22;93863.25;;;1.68;57.82
41690;BME280;27372;42.658;23.256;2023-03-14T01:42:56;93865.19;;;1.36;59.72
41690;BME280;27372;42.658;23.256;2023-03-14T01:48:28;93863.44;;;1.52;59.81
41690;BME280;27372;42.658;23.256;2023-03-14T01:50:57;93869.69;;;1.88;59.42
41690;BME280;27372;42.658;23.256;2023-03-14T01:53:24;93862.59;;;1.96;59.06
41690;BME280;27372;42.658;23.256;2023-03-14T01:55:51;93856.00;;;1.79;59.39
41690;BME280;27372;42.658;23.256;2023-03-14T01:58:19;93867.59;;;2.13;58.62
41690;BME280;27372;42.658;23.256;2023-03-14T02:00:45;93855.94;;;2.24;58.04
41690;BME280;27372;42.658;23.256;2023-03-14T02:03:14;93856.88;;;2.38;57.15
41690;BME280;27372;42.658;23.256;2023-03-14T02:05:42;93852.28;;;2.55;55.98
41690;BME280;27372;42.658;23.256;2023-03-14T02:08:13;93851.78;;;2.66;55.53
41690;BME280;27372;42.658;23.256;2023-03-14T02:10:46;93851.47;;;2.76;56.01
41690;BME280;27372;42.658;23.256;2023-03-14T02:13:14;93847.56;;;2.43;57.02
41690;BME280;27372;42.658;23.256;2023-03-14T02:15:41;93845.94;;;2.21;57.55
41690;BME280;27372;42.658;23.256;2023-03-14T02:18:07;93846.59;;;2.08;58.33
41690;BME280;27372;42.658;23.256;2023-03-14T02:23:42;93847.72;;;1.68;60.57
41690;BME280;27372;42.658;23.256;2023-03-14T02:26:22;93849.28;;;1.10;62.15
41690;BME280;27372;42.658;23.256;2023-03-14T02:28:49;93835.91;;;1.06;63.30
41690;BME280;27372;42.658;23.256;2023-03-14T02:31:15;93841.22;;;0.66;63.78
41690;BME280;27372;42.658;23.256;2023-03-14T02:33:41;93850.47;;;0.60;64.90
41690;BME280;27372;42.658;23.256;2023-03-14T02:36:09;93855.09;;;1.12;63.06
41690;BME280;27372;42.658;23.256;2023-03-14T02:41:14;93864.22;;;1.52;62.60
41690;BME280;27372;42.658;23.256;2023-03-14T02:43:39;93859.41;;;1.64;61.35
41690;BME280;27372;42.658;23.256;2023-03-14T02:46:05;93850.00;;;1.33;60.59
41690;BME280;27372;42.658;23.256;2023-03-14T02:48:35;93859.47;;;1.41;60.71
41690;BME280;27372;42.658;23.256;2023-03-14T02:51:01;93850.75;;;1.42;60.82
41690;BME280;27372;42.658;23.256;2023-03-14T02:53:32;93863.03;;;1.25;61.57
41690;BME280;27372;42.658;23.256;2023-03-14T02:55:59;93837.59;;;1.14;61.50
41690;BME280;27372;42.658;23.256;2023-03-14T02:58:25;93839.06;;;1.31;61.15
41690;BME280;27372;42.658;23.256;2023-03-14T03:00:51;93849.56;;;1.30;61.13
41690;BME280;27372;42.658;23.256;2023-03-14T03:03:16;93854.47;;;1.10;61.70
41690;BME280;27372;42.658;23.256;2023-03-14T03:05:42;93853.56;;;1.17;62.13
41690;BME280;27372;42.658;23.256;2023-03-14T03:08:09;93849.84;;;1.50;61.19
41690;BME280;27372;42.658;23.256;2023-03-14T03:10:35;93849.22;;;1.63;60.33
41690;BME280;27372;42.658;23.256;2023-03-14T03:13:00;93840.91;;;1.67;59.64
41690;BME280;27372;42.658;23.256;2023-03-14T03:15:26;93842.41;;;1.92;58.83
41690;BME280;27372;42.658;23.256;2023-03-14T03:17:51;93854.25;;;2.16;58.22
41690;BME280;27372;42.658;23.256;2023-03-14T03:20:17;93841.44;;;2.29;57.98
41690;BME280;27372;42.658;23.256;2023-03-14T03:22:42;93840.91;;;2.34;58.62
41690;BME280;27372;42.658;23.256;2023-03-14T03:25:08;93842.31;;;2.00;59.81
41690;BME280;27372;42.658;23.256;2023-03-14T03:27:35;93842.09;;;1.80;60.81
41690;BME280;27372;42.658;23.256;2023-03-14T03:30:01;93859.38;;;1.94;60.82
41690;BME280;27372;42.658;23.256;2023-03-14T03:32:27;93846.91;;;1.68;61.33
41690;BME280;27372;42.658;23.256;2023-03-14T03:34:53;93835.13;;;1.50;61.11
41690;BME280;27372;42.658;23.256;2023-03-14T03:37:18;93848.69;;;1.37;61.81
41690;BME280;27372;42.658;23.256;2023-03-14T03:39:43;93845.91;;;1.39;61.89
41690;BME280;27372;42.658;23.256;2023-03-14T03:42:09;93834.03;;;1.45;61.92
41690;BME280;27372;42.658;23.256;2023-03-14T03:44:35;93839.41;;;1.58;61.92
41690;BME280;27372;42.658;23.256;2023-03-14T03:47:01;93851.00;;;1.92;61.17
41690;BME280;27372;42.658;23.256;2023-03-14T03:49:31;93855.44;;;1.98;60.85
41690;BME280;27372;42.658;23.256;2023-03-14T03:51:57;93855.19;;;2.08;60.83
41690;BME280;27372;42.658;23.256;2023-03-14T03:54:22;93868.53;;;2.27;60.77
41690;BME280;27372;42.658;23.256;2023-03-14T03:56:48;93870.16;;;2.28;60.22
41690;BME280;27372;42.658;23.256;2023-03-14T03:59:13;93858.81;;;2.14;61.25
41690;BME280;27372;42.658;23.256;2023-03-14T04:01:39;93852.59;;;2.08;61.14
41690;BME280;27372;42.658;23.256;2023-03-14T04:04:05;93859.88;;;2.20;61.16
41690;BME280;27372;42.658;23.256;2023-03-14T04:06:30;93851.13;;;2.21;61.08
41690;BME280;27372;42.658;23.256;2023-03-14T04:08:56;93856.22;;;2.29;60.18
41690;BME280;27372;42.658;23.256;2023-03-14T04:11:22;93855.22;;;2.15;61.32
41690;BME280;27372;42.658;23.256;2023-03-14T04:13:47;93854.75;;;2.26;61.01
41690;BME280;27372;42.658;23.256;2023-03-14T04:16:16;93855.91;;;2.39;60.69
41690;BME280;27372;42.658;23.256;2023-03-14T04:18:41;93848.25;;;2.30;60.86
41690;BME280;27372;42.658;23.256;2023-03-14T04:21:07;93845.94;;;2.21;60.86
41690;BME280;27372;42.658;23.256;2023-03-14T04:23:32;93839.31;;;1.66;62.68
41690;BME280;27372;42.658;23.256;2023-03-14T04:25:58;93829.94;;;1.65;62.41
41690;BME280;27372;42.658;23.256;2023-03-14T04:28:24;93828.63;;;1.54;62.78
41690;BME280;27372;42.658;23.256;2023-03-14T04:30:50;93817.19;;;1.49;63.10
41690;BME280;27372;42.658;23.256;2023-03-14T04:33:15;93825.94;;;1.33;65.60
41690;BME280;27372;42.658;23.256;2023-03-14T04:35:43;93820.03;;;1.54;64.55
41690;BME280;27372;42.658;23.256;2023-03-14T04:38:09;93816.53;;;1.77;62.72
41690;BME280;27372;42.658;23.256;2023-03-14T04:40:37;93812.88;;;1.56;62.99
41690;BME280;27372;42.658;23.256;2023-03-14T04:43:02;93808.78;;;1.17;64.86
41690;BME280;27372;42.658;23.256;2023-03-14T04:45:28;93813.31;;;1.15;65.42
41690;BME280;27372;42.658;23.256;2023-03-14T04:47:53;93805.84;;;1.05;65.55
41690;BME280;27372;42.658;23.256;2023-03-14T04:50:21;93807.25;;;0.92;66.15
41690;BME280;27372;42.658;23.256;2023-03-14T04:52:47;93810.56;;;1.01;66.04
41690;BME280;27372;42.658;23.256;2023-03-14T04:55:13;93798.50;;;0.93;65.94
41690;BME280;27372;42.658;23.256;2023-03-14T04:57:38;93793.44;;;1.00;65.32
41690;BME280;27372;42.658;23.256;2023-03-14T05:00:05;93795.84;;;1.02;65.19
41690;BME280;27372;42.658;23.256;2023-03-14T05:02:31;93810.66;;;1.23;64.57
41690;BME280;27372;42.658;23.256;2023-03-14T05:04:57;93801.84;;;1.32;64.70
41690;BME280;27372;42.658;23.256;2023-03-14T05:07:22;93790.84;;;1.00;65.28
41690;BME280;27372;42.658;23.256;2023-03-14T05:09:48;93804.63;;;0.77;66.49
41690;BME280;27372;42.658;23.256;2023-03-14T05:12:13;93800.25;;;0.78;67.27
41690;BME280;27372;42.658;23.256;2023-03-14T05:14:38;93806.72;;;0.59;67.98
41690;BME280;27372;42.658;23.256;2023-03-14T05:17:04;93800.38;;;1.00;67.13
41690;BME280;27372;42.658;23.256;2023-03-14T05:19:30;93796.47;;;1.19;65.96
41690;BME280;27372;42.658;23.256;2023-03-14T05:21:56;93797.56;;;1.24;65.62
41690;BME280;27372;42.658;23.256;2023-03-14T05:24:22;93787.34;;;1.53;65.16
41690;BME280;27372;42.658;23.256;2023-03-14T05:26:47;93786.81;;;1.43;64.34
41690;BME280;27372;42.658;23.256;2023-03-14T05:29:12;93789.88;;;1.61;63.45
41690;BME280;27372;42.658;23.256;2023-03-14T05:31:38;93789.94;;;1.68;63.12
41690;BME280;27372;42.658;23.256;2023-03-14T05:34:04;93791.50;;;1.84;62.82
41690;BME280;27372;42.658;23.256;2023-03-14T05:36:30;93791.41;;;2.29;61.80
41690;BME280;27372;42.658;23.256;2023-03-14T05:38:55;93794.59;;;2.53;61.31
41690;BME280;27372;42.658;23.256;2023-03-14T05:41:21;93801.09;;;2.63;62.33
41690;BME280;27372;42.658;23.256;2023-03-14T05:43:46;93804.66;;;2.84;62.49
41690;BME280;27372;42.658;23.256;2023-03-14T05:46:15;93811.41;;;3.07;61.75
41690;BME280;27372;42.658;23.256;2023-03-14T05:48:40;93798.22;;;3.37;59.80
41690;BME280;27372;42.658;23.256;2023-03-14T05:51:06;93806.13;;;3.57;59.44
41690;BME280;27372;42.658;23.256;2023-03-14T05:53:31;93787.16;;;3.63;58.29
41690;BME280;27372;42.658;23.256;2023-03-14T05:55:57;93799.88;;;3.86;57.93
41690;BME280;27372;42.658;23.256;2023-03-14T05:58:22;93806.50;;;3.96;57.74
41690;BME280;27372;42.658;23.256;2023-03-14T06:00:49;93791.44;;;4.46;75.76
41690;BME280;27372;42.658;23.256;2023-03-14T06:03:15;93789.06;;;6.43;87.44
41690;BME280;27372;42.658;23.256;2023-03-14T06:05:45;93794.81;;;7.53;77.79
41690;BME280;27372;42.658;23.256;2023-03-14T06:08:10;93792.66;;;8.06;73.94
41690;BME280;27372;42.658;23.256;2023-03-14T06:10:36;93783.97;;;8.24;65.19
41690;BME280;27372;42.658;23.256;2023-03-14T06:13:02;93785.69;;;8.91;63.88
41690;BME280;27372;42.658;23.256;2023-03-14T06:15:28;93785.97;;;9.13;57.59
41690;BME280;27372;42.658;23.256;2023-03-14T06:17:55;93791.72;;;8.92;45.57
41690;BME280;27372;42.658;23.256;2023-03-14T06:20:21;93788.53;;;8.47;45.08
41690;BME280;27372;42.658;23.256;2023-03-14T06:22:54;93802.41;;;7.80;45.60
41690;BME280;27372;42.658;23.256;2023-03-14T06:25:19;93799.13;;;7.85;45.98
41690;BME280;27372;42.658;23.256;2023-03-14T06:27:45;93805.00;;;7.18;47.34
41690;BME280;27372;42.658;23.256;2023-03-14T06:30:12;93804.94;;;6.99;47.72
41690;BME280;27372;42.658;23.256;2023-03-14T06:32:38;93810.16;;;6.99;46.81
41690;BME280;27372;42.658;23.256;2023-03-14T06:35:03;93797.13;;;6.67;47.27
41690;BME280;27372;42.658;23.256;2023-03-14T06:37:29;93797.81;;;6.24;48.25
41690;BME280;27372;42.658;23.256;2023-03-14T06:39:55;93790.16;;;6.22;48.54
41690;BME280;27372;42.658;23.256;2023-03-14T06:42:20;93802.03;;;6.18;48.59
41690;BME280;27372;42.658;23.256;2023-03-14T06:44:46;93795.63;;;6.14;48.95
41690;BME280;27372;42.658;23.256;2023-03-14T06:47:12;93801.03;;;6.19;49.57
41690;BME280;27372;42.658;23.256;2023-03-14T06:49:37;93786.41;;;6.11;49.48
41690;BME280;27372;42.658;23.256;2023-03-14T06:52:02;93789.88;;;6.05;49.84
41690;BME280;27372;42.658;23.256;2023-03-14T06:54:28;93774.09;;;5.80;49.99
41690;BME280;27372;42.658;23.256;2023-03-14T06:56:54;93780.88;;;5.87;50.50
41690;BME280;27372;42.658;23.256;2023-03-14T06:59:19;93773.66;;;5.83;49.95
41690;BME280;27372;42.658;23.256;2023-03-14T07:01:44;93764.72;;;5.65;51.09
41690;BME280;27372;42.658;23.256;2023-03-14T07:04:10;93756.84;;;5.79;50.44
41690;BME280;27372;42.658;23.256;2023-03-14T07:06:36;93753.88;;;5.68;50.89
41690;BME280;27372;42.658;23.256;2023-03-14T07:09:02;93758.25;;;5.81;50.09
41690;BME280;27372;42.658;23.256;2023-03-14T07:11:28;93761.50;;;5.70;50.73
41690;BME280;27372;42.658;23.256;2023-03-14T07:13:53;93761.47;;;5.77;50.77
41690;BME280;27372;42.658;23.256;2023-03-14T07:16:19;93768.28;;;5.78;50.40
41690;BME280;27372;42.658;23.256;2023-03-14T07:18:45;93764.81;;;6.04;49.58
41690;BME280;27372;42.658;23.256;2023-03-14T07:21:10;93767.88;;;6.26;49.15
41690;BME280;27372;42.658;23.256;2023-03-14T07:23:37;93772.13;;;6.59;48.46
41690;BME280;27372;42.658;23.256;2023-03-14T07:26:03;93765.03;;;6.66;47.27
41690;BME280;27372;42.658;23.256;2023-03-14T07:28:28;93759.22;;;6.90;46.66
41690;BME280;27372;42.658;23.256;2023-03-14T07:30:54;93756.84;;;6.88;46.42
41690;BME280;27372;42.658;23.256;2023-03-14T07:33:20;93744.53;;;6.95;46.22
41690;BME280;27372;42.658;23.256;2023-03-14T07:35:49;93740.81;;;7.28;45.22
41690;BME280;27372;42.658;23.256;2023-03-14T07:38:16;93746.16;;;7.34;44.88
41690;BME280;27372;42.658;23.256;2023-03-14T07:40:42;93739.44;;;7.44;43.86
41690;BME280;27372;42.658;23.256;2023-03-14T07:43:08;93740.75;;;7.54;44.21
41690;BME280;27372;42.658;23.256;2023-03-14T07:45:34;93736.75;;;7.51;44.39
41690;BME280;27372;42.658;23.256;2023-03-14T07:47:59;93737.25;;;7.78;44.10
41690;BME280;27372;42.658;23.256;2023-03-14T07:50:27;93743.44;;;7.66;43.94
41690;BME280;27372;42.658;23.256;2023-03-14T07:52:54;93745.00;;;7.85;43.68
41690;BME280;27372;42.658;23.256;2023-03-14T07:55:20;93748.81;;;8.20;42.73
41690;BME280;27372;42.658;23.256;2023-03-14T07:57:46;93749.44;;;8.34;42.63
41690;BME280;27372;42.658;23.256;2023-03-14T08:00:13;93735.03;;;8.43;42.54
41690;BME280;27372;42.658;23.256;2023-03-14T08:02:40;93736.44;;;8.58;42.61
41690;BME280;27372;42.658;23.256;2023-03-14T08:05:06;93728.66;;;9.05;41.32
41690;BME280;27372;42.658;23.256;2023-03-14T08:07:31;93728.22;;;9.20;40.40
41690;BME280;27372;42.658;23.256;2023-03-14T08:09:57;93728.75;;;9.22;40.29
41690;BME280;27372;42.658;23.256;2023-03-14T08:12:22;93730.91;;;9.49;40.02
41690;BME280;27372;42.658;23.256;2023-03-14T08:14:48;93732.78;;;9.77;39.39
41690;BME280;27372;42.658;23.256;2023-03-14T08:17:13;93724.91;;;9.89;38.13
41690;BME280;27372;42.658;23.256;2023-03-14T08:19:41;93718.97;;;9.94;38.29
41690;BME280;27372;42.658;23.256;2023-03-14T08:22:09;93727.84;;;9.93;37.96
41690;BME280;27372;42.658;23.256;2023-03-14T08:24:34;93724.38;;;9.75;38.58
41690;BME280;27372;42.658;23.256;2023-03-14T08:26:59;93737.03;;;10.07;38.19
41690;BME280;27372;42.658;23.256;2023-03-14T08:29:25;93725.94;;;10.46;37.92
41690;BME280;27372;42.658;23.256;2023-03-14T08:31:50;93726.53;;;10.65;36.87
41690;BME280;27372;42.658;23.256;2023-03-14T08:34:16;93721.22;;;10.77;35.31
41690;BME280;27372;42.658;23.256;2023-03-14T08:36:42;93719.94;;;10.80;36.05
41690;BME280;27372;42.658;23.256;2023-03-14T08:39:08;93710.03;;;11.21;36.76
41690;BME280;27372;42.658;23.256;2023-03-14T08:41:34;93704.97;;;11.54;34.99
41690;BME280;27372;42.658;23.256;2023-03-14T08:44:08;93700.16;;;11.28;35.36
41690;BME280;27372;42.658;23.256;2023-03-14T08:46:34;93703.56;;;11.90;34.76
41690;BME280;27372;42.658;23.256;2023-03-14T08:49:09;93695.59;;;12.07;34.85
41690;BME280;27372;42.658;23.256;2023-03-14T08:51:41;93701.34;;;12.26;34.71
41690;BME280;27372;42.658;23.256;2023-03-14T08:54:10;93693.34;;;12.16;35.26
41690;BME280;27372;42.658;23.256;2023-03-14T08:56:37;93697.03;;;12.75;33.91
41690;BME280;27372;42.658;23.256;2023-03-14T08:59:06;93687.34;;;13.24;32.84
41690;BME280;27372;42.658;23.256;2023-03-14T09:01:33;93672.34;;;13.72;32.84
41690;BME280;27372;42.658;23.256;2023-03-14T09:03:58;93667.53;;;13.59;31.75
41690;BME280;27372;42.658;23.256;2023-03-14T09:06:24;93654.88;;;13.66;31.27
41690;BME280;27372;42.658;23.256;2023-03-14T09:08:49;93652.25;;;13.61;32.12
41690;BME280;27372;42.658;23.256;2023-03-14T09:11:15;93649.72;;;13.97;31.80
41690;BME280;27372;42.658;23.256;2023-03-14T09:13:43;93643.91;;;14.00;30.76
41690;BME280;27372;42.658;23.256;2023-03-14T09:16:12;93656.19;;;14.73;30.53
41690;BME280;27372;42.658;23.256;2023-03-14T09:18:38;93650.56;;;15.37;29.91
41690;BME280;27372;42.658;23.256;2023-03-14T09:21:04;93627.50;;;15.37;29.56
41690;BME280;27372;42.658;23.256;2023-03-14T09:23:29;93631.44;;;15.56;29.00
41690;BME280;27372;42.658;23.256;2023-03-14T09:25:58;93622.47;;;15.51;28.85
41690;BME280;27372;42.658;23.256;2023-03-14T09:28:27;93620.41;;;16.04;28.01
41690;BME280;27372;42.658;23.256;2023-03-14T09:30:54;93621.03;;;16.25;28.09
41690;BME280;27372;42.658;23.256;2023-03-14T09:33:19;93613.53;;;15.97;27.39
41690;BME280;27372;42.658;23.256;2023-03-14T09:35:45;93609.06;;;16.38;26.73
41690;BME280;27372;42.658;23.256;2023-03-14T09:38:11;93606.72;;;16.66;27.10
41690;BME280;27372;42.658;23.256;2023-03-14T09:40:37;93594.28;;;16.96;26.88
41690;BME280;27372;42.658;23.256;2023-03-14T09:43:03;93603.00;;;17.26;26.73
41690;BME280;27372;42.658;23.256;2023-03-14T09:45:34;93602.88;;;17.60;26.50
41690;BME280;27372;42.658;23.256;2023-03-14T09:48:02;93593.09;;;18.18;25.06
41690;BME280;27372;42.658;23.256;2023-03-14T09:50:55;93586.13;;;17.84;25.79
41690;BME280;27372;42.658;23.256;2023-03-14T09:53:34;93572.50;;;18.29;24.71
41690;BME280;27372;42.658;23.256;2023-03-14T09:56:02;93582.88;;;18.44;25.41
41690;BME280;27372;42.658;23.256;2023-03-14T09:58:27;93569.53;;;18.50;24.59
41690;BME280;27372;42.658;23.256;2023-03-14T10:00:56;93573.81;;;18.65;24.86
41690;BME280;27372;42.658;23.256;2023-03-14T10:03:32;93565.00;;;18.50;24.21
41690;BME280;27372;42.658;23.256;2023-03-14T10:05:58;93565.34;;;19.09;24.10
41690;BME280;27372;42.658;23.256;2023-03-14T10:08:23;93556.16;;;19.16;23.97
41690;BME280;27372;42.658;23.256;2023-03-14T10:10:49;93562.06;;;18.99;23.49
41690;BME280;27372;42.658;23.256;2023-03-14T10:13:26;93541.09;;;19.25;24.10
41690;BME280;27372;42.658;23.256;2023-03-14T10:16:01;93539.53;;;19.38;23.67
41690;BME280;27372;42.658;23.256;2023-03-14T10:18:30;93536.84;;;18.96;23.73
41690;BME280;27372;42.658;23.256;2023-03-14T10:23:33;93527.81;;;19.90;23.11
41690;BME280;27372;42.658;23.256;2023-03-14T10:26:11;93525.69;;;20.69;22.99
41690;BME280;27372;42.658;23.256;2023-03-14T10:28:43;93519.78;;;20.49;22.96
41690;BME280;27372;42.658;23.256;2023-03-14T10:31:08;93510.44;;;20.15;22.62
41690;BME280;27372;42.658;23.256;2023-03-14T10:33:36;93507.03;;;20.69;23.13
41690;BME280;27372;42.658;23.256;2023-03-14T10:36:19;93487.03;;;21.29;21.97
41690;BME280;27372;42.658;23.256;2023-03-14T10:38:46;93487.69;;;20.86;22.58
41690;BME280;27372;42.658;23.256;2023-03-14T10:41:25;93479.31;;;21.19;22.63
41690;BME280;27372;42.658;23.256;2023-03-14T10:43:53;93461.09;;;21.12;22.14
41690;BME280;27372;42.658;23.256;2023-03-14T10:46:23;93462.53;;;20.78;22.32
41690;BME280;27372;42.658;23.256;2023-03-14T10:48:49;93455.53;;;21.00;22.54
41690;BME280;27372;42.658;23.256;2023-03-14T10:53:44;93450.91;;;21.32;22.35
41690;BME280;27372;42.658;23.256;2023-03-14T10:56:14;93444.28;;;21.20;22.36
41690;BME280;27372;42.658;23.256;2023-03-14T10:58:43;93442.28;;;21.26;22.39
41690;BME280;27372;42.658;23.256;2023-03-14T11:07:14;93432.59;;;21.56;21.80
41690;BME280;27372;42.658;23.256;2023-03-14T11:15:23;93402.22;;;22.14;21.52
41690;BME280;27372;42.658;23.256;2023-03-14T11:23:23;93391.91;;;22.90;21.28
41690;BME280;27372;42.658;23.256;2023-03-14T11:28:40;93356.47;;;23.44;20.43
41690;BME280;27372;42.658;23.256;2023-03-14T11:31:41;93364.56;;;23.35;21.28
41690;BME280;27372;42.658;23.256;2023-03-14T11:34:22;93355.44;;;23.36;20.64
41690;BME280;27372;42.658;23.256;2023-03-14T11:36:53;93356.56;;;22.75;21.29
41690;BME280;27372;42.658;23.256;2023-03-14T11:39:25;93349.28;;;22.85;20.93
41690;BME280;27372;42.658;23.256;2023-03-14T11:41:53;93342.63;;;22.61;21.03
41690;BME280;27372;42.658;23.256;2023-03-14T11:44:25;93337.56;;;23.40;20.49
41690;BME280;27372;42.658;23.256;2023-03-14T11:51:52;93328.91;;;23.22;20.99
41690;BME280;27372;42.658;23.256;2023-03-14T11:56:57;93325.44;;;22.92;21.52
41690;BME280;27372;42.658;23.256;2023-03-14T11:59:27;93321.03;;;23.17;20.96
41690;BME280;27372;42.658;23.256;2023-03-14T12:01:58;93318.09;;;23.86;20.62
41690;BME280;27372;42.658;23.256;2023-03-14T12:05:14;93310.19;;;23.56;20.20
41690;BME280;27372;42.658;23.256;2023-03-14T12:10:38;93282.25;;;23.45;21.00
41690;BME280;27372;42.658;23.256;2023-03-14T12:13:04;93297.00;;;24.30;19.79
41690;BME280;27372;42.658;23.256;2023-03-14T12:15:37;93273.47;;;24.02;19.90
41690;BME280;27372;42.658;23.256;2023-03-14T12:18:04;93276.97;;;24.15;19.90
41690;BME280;27372;42.658;23.256;2023-03-14T12:20:37;93273.50;;;24.77;18.99
41690;BME280;27372;42.658;23.256;2023-03-14T12:23:05;93263.38;;;25.39;19.06
41690;BME280;27372;42.658;23.256;2023-03-14T12:25:35;93254.81;;;24.93;19.55
41690;BME280;27372;42.658;23.256;2023-03-14T12:28:17;93250.94;;;24.41;19.25
41690;BME280;27372;42.658;23.256;2023-03-14T12:30:44;93257.63;;;24.59;19.50
41690;BME280;27372;42.658;23.256;2023-03-14T12:38:09;93239.19;;;22.65;20.72
41690;BME280;27372;42.658;23.256;2023-03-14T12:40:40;93235.69;;;22.73;20.95
41690;BME280;27372;42.658;23.256;2023-03-14T12:43:28;93245.78;;;23.98;19.61
41690;BME280;27372;42.658;23.256;2023-03-14T12:46:24;93230.38;;;24.20;19.63
41690;BME280;27372;42.658;23.256;2023-03-14T12:51:38;93219.72;;;24.73;19.70
41690;BME280;27372;42.658;23.256;2023-03-14T13:02:25;93183.53;;;24.17;19.10
41690;BME280;27372;42.658;23.256;2023-03-14T13:05:02;93188.59;;;24.19;19.36
41690;BME280;27372;42.658;23.256;2023-03-14T13:12:27;93181.25;;;26.50;17.64
41690;BME280;27372;42.658;23.256;2023-03-14T13:14:53;93174.09;;;25.74;17.98
41690;BME280;27372;42.658;23.256;2023-03-14T13:17:32;93170.34;;;25.63;17.82
41690;BME280;27372;42.658;23.256;2023-03-14T13:20:05;93165.59;;;25.72;18.24
41690;BME280;27372;42.658;23.256;2023-03-14T13:22:35;93159.00;;;26.02;17.66
41690;BME280;27372;42.658;23.256;2023-03-14T13:25:07;93160.56;;;26.19;17.65
41690;BME280;27372;42.658;23.256;2023-03-14T13:27:35;93156.47;;;26.61;17.08
41690;BME280;27372;42.658;23.256;2023-03-14T13:30:23;93148.50;;;26.48;17.52
41690;BME280;27372;42.658;23.256;2023-03-14T13:32:50;93132.94;;;26.58;17.47
41690;BME280;27372;42.658;23.256;2023-03-14T13:37:43;93124.66;;;26.11;17.50
41690;BME280;27372;42.658;23.256;2023-03-14T13:40:19;93127.78;;;26.49;17.67
41690;BME280;27372;42.658;23.256;2023-03-14T13:42:44;93116.06;;;25.89;17.69
41690;BME280;27372;42.658;23.256;2023-03-14T13:45:13;93111.97;;;25.80;17.87
41690;BME280;27372;42.658;23.256;2023-03-14T13:47:39;93106.00;;;26.38;17.45
41690;BME280;27372;42.658;23.256;2023-03-14T13:50:05;93098.69;;;26.03;17.61
41690;BME280;27372;42.658;23.256;2023-03-14T13:52:35;93109.25;;;25.16;18.11
41690;BME280;27372;42.658;23.256;2023-03-14T13:55:03;93091.63;;;25.79;17.75
41690;BME280;27372;42.658;23.256;2023-03-14T13:57:49;93080.66;;;25.23;17.80
41690;BME280;27372;42.658;23.256;2023-03-14T14:00:25;93077.22;;;25.39;18.27
41690;BME280;27372;42.658;23.256;2023-03-14T14:02:55;93073.25;;;25.33;18.07
41690;BME280;27372;42.658;23.256;2023-03-14T14:05:22;93071.19;;;25.42;17.94
41690;BME280;27372;42.658;23.256;2023-03-14T14:07:48;93074.09;;;25.85;17.90